Stockholm, New Jersey
Current Conditions -  °F | °C
As of 7:53 AM on Friday 31 Oct 2014 (Local Time) from KFWN Reporting Station
Clear Clear  
Wind Chill: 29°   Ceiling: Unl
Heat Index: 29°   Visibility: 10mi
Dew Point: 25°   Wind: 0mph
Humidity: 85%   Direction: NA
Pressure: 30.03"   Gusts: NA
Location:  41.09°N, 74.52°W
Report Text: KFWN 311153Z AUTO 00000KT 10SM CLR M02/M04 A3003 RMK AO2 SLP173 I1000 I6002 T10171039 10000 21022 53006
Loading
Personal Weather Stations






























Interactive Weather Map
Tropical Storm Tracking
New forecast layout! Learn more

10-Day Weather Forecast

Advertisements
Track Severe Weather on mobile